sensor_id;sensor_type;location;lat;lon;timestamp;P1;durP1;ratioP1;P2;durP2;ratioP2
25349;SDS011;13302;48.796;11.978;2022-12-18T00:02:00;27.40;;;19.93;;
25349;SDS011;13302;48.796;11.978;2022-12-18T00:04:47;29.80;;;20.33;;
25349;SDS011;13302;48.796;11.978;2022-12-18T00:07:35;30.37;;;21.53;;
25349;SDS011;13302;48.796;11.978;2022-12-18T00:10:22;30.90;;;21.77;;
25349;SDS011;13302;48.796;11.978;2022-12-18T00:13:09;31.60;;;21.50;;
25349;SDS011;13302;48.796;11.978;2022-12-18T00:16:01;31.43;;;21.27;;
25349;SDS011;13302;48.796;11.978;2022-12-18T00:18:50;28.67;;;20.97;;
25349;SDS011;13302;48.796;11.978;2022-12-18T00:21:39;29.40;;;18.93;;
25349;SDS011;13302;48.796;11.978;2022-12-18T00:24:28;29.47;;;21.80;;
25349;SDS011;13302;48.796;11.978;2022-12-18T00:27:15;27.17;;;20.10;;
25349;SDS011;13302;48.796;11.978;2022-12-18T00:30:02;26.60;;;19.47;;
25349;SDS011;13302;48.796;11.978;2022-12-18T00:32:49;27.57;;;20.37;;
25349;SDS011;13302;48.796;11.978;2022-12-18T00:35:36;27.17;;;19.57;;
25349;SDS011;13302;48.796;11.978;2022-12-18T00:38:23;25.73;;;19.37;;
25349;SDS011;13302;48.796;11.978;2022-12-18T00:41:10;27.83;;;20.07;;
25349;SDS011;13302;48.796;11.978;2022-12-18T00:43:58;28.70;;;20.70;;
25349;SDS011;13302;48.796;11.978;2022-12-18T00:46:45;29.90;;;20.93;;
25349;SDS011;13302;48.796;11.978;2022-12-18T00:49:34;28.57;;;21.03;;
25349;SDS011;13302;48.796;11.978;2022-12-18T00:52:21;32.57;;;23.23;;
25349;SDS011;13302;48.796;11.978;2022-12-18T00:55:08;28.10;;;21.37;;
25349;SDS011;13302;48.796;11.978;2022-12-18T00:57:55;31.30;;;21.13;;
25349;SDS011;13302;48.796;11.978;2022-12-18T01:00:42;32.00;;;22.73;;
25349;SDS011;13302;48.796;11.978;2022-12-18T01:03:30;27.17;;;19.33;;
25349;SDS011;13302;48.796;11.978;2022-12-18T01:06:17;30.80;;;21.77;;
25349;SDS011;13302;48.796;11.978;2022-12-18T01:09:04;26.93;;;19.17;;
25349;SDS011;13302;48.796;11.978;2022-12-18T01:11:51;24.83;;;18.17;;
25349;SDS011;13302;48.796;11.978;2022-12-18T01:14:38;27.77;;;19.47;;
25349;SDS011;13302;48.796;11.978;2022-12-18T01:17:25;24.07;;;18.40;;
25349;SDS011;13302;48.796;11.978;2022-12-18T01:20:12;27.20;;;20.07;;
25349;SDS011;13302;48.796;11.978;2022-12-18T01:23:00;24.80;;;19.00;;
25349;SDS011;13302;48.796;11.978;2022-12-18T01:25:47;25.47;;;19.60;;
25349;SDS011;13302;48.796;11.978;2022-12-18T01:28:34;28.73;;;20.17;;
25349;SDS011;13302;48.796;11.978;2022-12-18T01:31:22;24.27;;;19.43;;
25349;SDS011;13302;48.796;11.978;2022-12-18T01:34:11;27.07;;;19.30;;
25349;SDS011;13302;48.796;11.978;2022-12-18T01:36:58;26.53;;;19.63;;
25349;SDS011;13302;48.796;11.978;2022-12-18T01:39:45;26.43;;;19.43;;
25349;SDS011;13302;48.796;11.978;2022-12-18T01:42:32;29.13;;;19.87;;
25349;SDS011;13302;48.796;11.978;2022-12-18T01:45:30;26.07;;;18.97;;
25349;SDS011;13302;48.796;11.978;2022-12-18T01:48:18;25.07;;;19.20;;
25349;SDS011;13302;48.796;11.978;2022-12-18T01:51:06;24.07;;;18.17;;
25349;SDS011;13302;48.796;11.978;2022-12-18T01:53:56;25.00;;;18.40;;
25349;SDS011;13302;48.796;11.978;2022-12-18T01:56:44;26.43;;;19.43;;
25349;SDS011;13302;48.796;11.978;2022-12-18T01:59:31;25.00;;;19.10;;
25349;SDS011;13302;48.796;11.978;2022-12-18T02:02:20;24.83;;;18.93;;
25349;SDS011;13302;48.796;11.978;2022-12-18T02:05:08;25.87;;;19.40;;
25349;SDS011;13302;48.796;11.978;2022-12-18T02:17:07;29.43;;;20.47;;
25349;SDS011;13302;48.796;11.978;2022-12-18T02:20:16;27.17;;;20.67;;
25349;SDS011;13302;48.796;11.978;2022-12-18T02:26:55;25.07;;;18.97;;
25349;SDS011;13302;48.796;11.978;2022-12-18T02:29:48;24.23;;;18.47;;
25349;SDS011;13302;48.796;11.978;2022-12-18T02:32:46;27.53;;;20.40;;
25349;SDS011;13302;48.796;11.978;2022-12-18T02:35:36;28.93;;;20.20;;
25349;SDS011;13302;48.796;11.978;2022-12-18T02:38:27;28.77;;;20.63;;
25349;SDS011;13302;48.796;11.978;2022-12-18T02:41:28;27.80;;;19.37;;
25349;SDS011;13302;48.796;11.978;2022-12-18T02:44:16;26.40;;;19.93;;
25349;SDS011;13302;48.796;11.978;2022-12-18T02:47:04;26.03;;;19.37;;
25349;SDS011;13302;48.796;11.978;2022-12-18T02:56:06;24.27;;;18.93;;
25349;SDS011;13302;48.796;11.978;2022-12-18T02:59:09;27.30;;;20.20;;
25349;SDS011;13302;48.796;11.978;2022-12-18T03:02:08;27.00;;;20.03;;
25349;SDS011;13302;48.796;11.978;2022-12-18T03:05:19;25.43;;;19.17;;
25349;SDS011;13302;48.796;11.978;2022-12-18T03:08:12;26.10;;;20.03;;
25349;SDS011;13302;48.796;11.978;2022-12-18T03:11:11;25.90;;;19.30;;
25349;SDS011;13302;48.796;11.978;2022-12-18T03:14:01;26.50;;;19.33;;
25349;SDS011;13302;48.796;11.978;2022-12-18T03:16:51;25.07;;;18.07;;
25349;SDS011;13302;48.796;11.978;2022-12-18T03:19:41;24.17;;;18.57;;
25349;SDS011;13302;48.796;11.978;2022-12-18T03:22:30;26.40;;;19.57;;
25349;SDS011;13302;48.796;11.978;2022-12-18T03:25:21;25.03;;;19.47;;
25349;SDS011;13302;48.796;11.978;2022-12-18T03:28:14;26.90;;;20.27;;
25349;SDS011;13302;48.796;11.978;2022-12-18T03:31:09;26.33;;;19.53;;
25349;SDS011;13302;48.796;11.978;2022-12-18T03:33:59;26.27;;;19.87;;
25349;SDS011;13302;48.796;11.978;2022-12-18T03:36:58;27.70;;;19.97;;
25349;SDS011;13302;48.796;11.978;2022-12-18T03:39:47;28.10;;;19.83;;
25349;SDS011;13302;48.796;11.978;2022-12-18T03:42:43;28.63;;;20.77;;
25349;SDS011;13302;48.796;11.978;2022-12-18T03:45:37;27.10;;;19.17;;
25349;SDS011;13302;48.796;11.978;2022-12-18T03:48:41;26.70;;;19.50;;
25349;SDS011;13302;48.796;11.978;2022-12-18T03:51:40;27.73;;;20.53;;
25349;SDS011;13302;48.796;11.978;2022-12-18T03:54:36;30.57;;;20.77;;
25349;SDS011;13302;48.796;11.978;2022-12-18T03:57:31;27.47;;;19.90;;
25349;SDS011;13302;48.796;11.978;2022-12-18T04:00:21;27.47;;;19.90;;
25349;SDS011;13302;48.796;11.978;2022-12-18T04:03:23;27.93;;;20.17;;
25349;SDS011;13302;48.796;11.978;2022-12-18T04:06:13;25.63;;;18.87;;
25349;SDS011;13302;48.796;11.978;2022-12-18T04:09:03;26.83;;;18.83;;
25349;SDS011;13302;48.796;11.978;2022-12-18T04:11:55;24.10;;;18.47;;
25349;SDS011;13302;48.796;11.978;2022-12-18T04:14:42;26.23;;;19.90;;
25349;SDS011;13302;48.796;11.978;2022-12-18T04:17:30;25.40;;;19.43;;
25349;SDS011;13302;48.796;11.978;2022-12-18T04:20:17;26.87;;;19.90;;
25349;SDS011;13302;48.796;11.978;2022-12-18T04:23:05;29.40;;;20.60;;
25349;SDS011;13302;48.796;11.978;2022-12-18T04:25:52;24.70;;;18.83;;
25349;SDS011;13302;48.796;11.978;2022-12-18T04:28:53;25.33;;;20.10;;
25349;SDS011;13302;48.796;11.978;2022-12-18T04:31:40;25.43;;;19.67;;
25349;SDS011;13302;48.796;11.978;2022-12-18T04:34:28;27.97;;;19.23;;
25349;SDS011;13302;48.796;11.978;2022-12-18T04:37:16;27.13;;;20.37;;
25349;SDS011;13302;48.796;11.978;2022-12-18T04:40:04;29.40;;;20.40;;
25349;SDS011;13302;48.796;11.978;2022-12-18T04:42:59;23.10;;;17.57;;
25349;SDS011;13302;48.796;11.978;2022-12-18T04:45:46;25.90;;;19.30;;
25349;SDS011;13302;48.796;11.978;2022-12-18T04:48:33;23.57;;;17.93;;
25349;SDS011;13302;48.796;11.978;2022-12-18T04:51:21;25.77;;;18.37;;
25349;SDS011;13302;48.796;11.978;2022-12-18T04:54:12;24.37;;;18.70;;
25349;SDS011;13302;48.796;11.978;2022-12-18T04:56:59;21.60;;;17.00;;
25349;SDS011;13302;48.796;11.978;2022-12-18T04:59:46;24.40;;;18.30;;
25349;SDS011;13302;48.796;11.978;2022-12-18T05:02:33;22.73;;;17.10;;
25349;SDS011;13302;48.796;11.978;2022-12-18T05:05:21;22.37;;;16.57;;
25349;SDS011;13302;48.796;11.978;2022-12-18T05:08:08;22.83;;;17.50;;
25349;SDS011;13302;48.796;11.978;2022-12-18T05:11:13;26.90;;;18.63;;
25349;SDS011;13302;48.796;11.978;2022-12-18T05:14:04;22.87;;;17.13;;
25349;SDS011;13302;48.796;11.978;2022-12-18T05:16:51;22.77;;;17.53;;
25349;SDS011;13302;48.796;11.978;2022-12-18T05:19:43;20.03;;;16.27;;
25349;SDS011;13302;48.796;11.978;2022-12-18T05:22:30;21.00;;;16.50;;
25349;SDS011;13302;48.796;11.978;2022-12-18T05:25:17;20.30;;;15.63;;
25349;SDS011;13302;48.796;11.978;2022-12-18T05:28:04;21.47;;;15.53;;
25349;SDS011;13302;48.796;11.978;2022-12-18T05:30:52;21.60;;;16.33;;
25349;SDS011;13302;48.796;11.978;2022-12-18T05:33:41;21.67;;;15.70;;
25349;SDS011;13302;48.796;11.978;2022-12-18T05:36:29;18.90;;;15.33;;
25349;SDS011;13302;48.796;11.978;2022-12-18T05:39:16;20.30;;;15.80;;
25349;SDS011;13302;48.796;11.978;2022-12-18T05:42:03;22.50;;;17.20;;
25349;SDS011;13302;48.796;11.978;2022-12-18T05:44:50;20.83;;;16.03;;
25349;SDS011;13302;48.796;11.978;2022-12-18T05:47:37;21.43;;;16.47;;
25349;SDS011;13302;48.796;11.978;2022-12-18T05:50:24;21.37;;;16.73;;
25349;SDS011;13302;48.796;11.978;2022-12-18T05:53:11;21.23;;;16.07;;
25349;SDS011;13302;48.796;11.978;2022-12-18T05:56:00;20.07;;;16.03;;
25349;SDS011;13302;48.796;11.978;2022-12-18T05:58:51;20.07;;;15.37;;
25349;SDS011;13302;48.796;11.978;2022-12-18T06:01:39;21.63;;;15.67;;
25349;SDS011;13302;48.796;11.978;2022-12-18T06:04:27;22.53;;;16.53;;
25349;SDS011;13302;48.796;11.978;2022-12-18T06:07:15;21.13;;;16.37;;
25349;SDS011;13302;48.796;11.978;2022-12-18T06:10:02;22.03;;;16.33;;
25349;SDS011;13302;48.796;11.978;2022-12-18T06:12:49;24.27;;;17.37;;
25349;SDS011;13302;48.796;11.978;2022-12-18T06:15:36;20.67;;;16.20;;
25349;SDS011;13302;48.796;11.978;2022-12-18T06:18:24;22.10;;;16.97;;
25349;SDS011;13302;48.796;11.978;2022-12-18T06:21:11;19.70;;;15.93;;
25349;SDS011;13302;48.796;11.978;2022-12-18T06:23:59;19.87;;;15.03;;
25349;SDS011;13302;48.796;11.978;2022-12-18T06:26:46;21.10;;;15.33;;
25349;SDS011;13302;48.796;11.978;2022-12-18T06:29:33;17.23;;;14.57;;
25349;SDS011;13302;48.796;11.978;2022-12-18T06:32:21;18.73;;;14.63;;
25349;SDS011;13302;48.796;11.978;2022-12-18T06:35:08;19.33;;;15.57;;
25349;SDS011;13302;48.796;11.978;2022-12-18T06:37:55;20.50;;;15.90;;
25349;SDS011;13302;48.796;11.978;2022-12-18T06:40:42;26.00;;;17.77;;
25349;SDS011;13302;48.796;11.978;2022-12-18T06:43:29;23.03;;;16.30;;
25349;SDS011;13302;48.796;11.978;2022-12-18T06:46:16;22.97;;;17.10;;
25349;SDS011;13302;48.796;11.978;2022-12-18T06:49:03;22.50;;;17.37;;
25349;SDS011;13302;48.796;11.978;2022-12-18T06:51:50;22.13;;;16.93;;
25349;SDS011;13302;48.796;11.978;2022-12-18T06:54:37;22.77;;;16.93;;
25349;SDS011;13302;48.796;11.978;2022-12-18T06:57:24;20.57;;;15.77;;
25349;SDS011;13302;48.796;11.978;2022-12-18T07:00:11;18.63;;;15.57;;
25349;SDS011;13302;48.796;11.978;2022-12-18T07:02:58;21.10;;;16.37;;
25349;SDS011;13302;48.796;11.978;2022-12-18T07:05:45;21.80;;;15.87;;
25349;SDS011;13302;48.796;11.978;2022-12-18T07:08:32;21.43;;;16.13;;
25349;SDS011;13302;48.796;11.978;2022-12-18T07:11:19;20.07;;;16.33;;
25349;SDS011;13302;48.796;11.978;2022-12-18T07:14:06;21.60;;;16.43;;
25349;SDS011;13302;48.796;11.978;2022-12-18T07:16:53;21.87;;;16.17;;
25349;SDS011;13302;48.796;11.978;2022-12-18T07:19:41;22.63;;;17.13;;
25349;SDS011;13302;48.796;11.978;2022-12-18T07:22:27;22.90;;;16.40;;
25349;SDS011;13302;48.796;11.978;2022-12-18T07:25:14;21.40;;;16.10;;
25349;SDS011;13302;48.796;11.978;2022-12-18T07:28:02;21.63;;;16.73;;
25349;SDS011;13302;48.796;11.978;2022-12-18T07:30:49;25.73;;;17.80;;
25349;SDS011;13302;48.796;11.978;2022-12-18T07:33:36;21.67;;;16.37;;
25349;SDS011;13302;48.796;11.978;2022-12-18T07:36:24;22.90;;;17.13;;
25349;SDS011;13302;48.796;11.978;2022-12-18T07:39:11;25.67;;;18.07;;
25349;SDS011;13302;48.796;11.978;2022-12-18T07:41:58;22.17;;;17.27;;
25349;SDS011;13302;48.796;11.978;2022-12-18T07:45:21;20.93;;;16.07;;
25349;SDS011;13302;48.796;11.978;2022-12-18T07:48:08;21.60;;;16.30;;
25349;SDS011;13302;48.796;11.978;2022-12-18T07:50:58;22.00;;;17.03;;
25349;SDS011;13302;48.796;11.978;2022-12-18T07:53:50;22.20;;;16.73;;
25349;SDS011;13302;48.796;11.978;2022-12-18T07:56:38;22.47;;;16.37;;
25349;SDS011;13302;48.796;11.978;2022-12-18T07:59:25;21.93;;;16.30;;
25349;SDS011;13302;48.796;11.978;2022-12-18T08:02:12;23.33;;;16.80;;
25349;SDS011;13302;48.796;11.978;2022-12-18T08:04:59;23.43;;;17.07;;
25349;SDS011;13302;48.796;11.978;2022-12-18T08:07:46;22.63;;;16.53;;
25349;SDS011;13302;48.796;11.978;2022-12-18T08:10:33;20.70;;;16.03;;
25349;SDS011;13302;48.796;11.978;2022-12-18T08:13:20;22.53;;;16.83;;
25349;SDS011;13302;48.796;11.978;2022-12-18T08:16:08;20.40;;;16.40;;
25349;SDS011;13302;48.796;11.978;2022-12-18T08:18:55;21.47;;;15.97;;
25349;SDS011;13302;48.796;11.978;2022-12-18T08:21:42;21.27;;;16.43;;
25349;SDS011;13302;48.796;11.978;2022-12-18T08:24:29;20.50;;;16.37;;
25349;SDS011;13302;48.796;11.978;2022-12-18T08:27:16;21.27;;;15.97;;
25349;SDS011;13302;48.796;11.978;2022-12-18T08:30:15;20.23;;;15.83;;
25349;SDS011;13302;48.796;11.978;2022-12-18T08:33:03;20.03;;;16.03;;
25349;SDS011;13302;48.796;11.978;2022-12-18T08:35:50;23.40;;;19.37;;
25349;SDS011;13302;48.796;11.978;2022-12-18T08:38:37;23.90;;;17.17;;
25349;SDS011;13302;48.796;11.978;2022-12-18T08:41:24;21.93;;;17.17;;
25349;SDS011;13302;48.796;11.978;2022-12-18T08:44:11;24.23;;;17.33;;
25349;SDS011;13302;48.796;11.978;2022-12-18T08:47:17;22.93;;;17.27;;
25349;SDS011;13302;48.796;11.978;2022-12-18T08:50:04;21.63;;;16.13;;
25349;SDS011;13302;48.796;11.978;2022-12-18T08:52:51;22.13;;;15.73;;
25349;SDS011;13302;48.796;11.978;2022-12-18T08:55:38;20.97;;;16.30;;
25349;SDS011;13302;48.796;11.978;2022-12-18T08:58:25;25.60;;;17.80;;
25349;SDS011;13302;48.796;11.978;2022-12-18T09:01:12;22.83;;;17.03;;
25349;SDS011;13302;48.796;11.978;2022-12-18T09:04:00;23.93;;;17.23;;
25349;SDS011;13302;48.796;11.978;2022-12-18T09:06:47;21.93;;;16.57;;
25349;SDS011;13302;48.796;11.978;2022-12-18T09:09:34;21.43;;;16.50;;
25349;SDS011;13302;48.796;11.978;2022-12-18T09:12:22;20.23;;;15.73;;
25349;SDS011;13302;48.796;11.978;2022-12-18T09:15:09;23.10;;;16.80;;
25349;SDS011;13302;48.796;11.978;2022-12-18T09:17:56;22.30;;;16.20;;
25349;SDS011;13302;48.796;11.978;2022-12-18T09:20:43;23.80;;;16.40;;
25349;SDS011;13302;48.796;11.978;2022-12-18T09:23:30;24.03;;;17.17;;
25349;SDS011;13302;48.796;11.978;2022-12-18T09:26:18;24.07;;;18.00;;
25349;SDS011;13302;48.796;11.978;2022-12-18T09:29:05;22.80;;;17.57;;
25349;SDS011;13302;48.796;11.978;2022-12-18T09:31:53;20.40;;;15.57;;
25349;SDS011;13302;48.796;11.978;2022-12-18T09:34:40;24.40;;;16.50;;
25349;SDS011;13302;48.796;11.978;2022-12-18T09:37:28;18.63;;;13.80;;
25349;SDS011;13302;48.796;11.978;2022-12-18T09:40:19;18.90;;;13.97;;
25349;SDS011;13302;48.796;11.978;2022-12-18T09:43:09;17.80;;;13.90;;
25349;SDS011;13302;48.796;11.978;2022-12-18T09:46:05;19.37;;;14.47;;
25349;SDS011;13302;48.796;11.978;2022-12-18T09:48:57;21.30;;;15.10;;
25349;SDS011;13302;48.796;11.978;2022-12-18T09:51:52;17.33;;;13.77;;
25349;SDS011;13302;48.796;11.978;2022-12-18T09:54:49;17.97;;;14.60;;
25349;SDS011;13302;48.796;11.978;2022-12-18T09:57:43;17.33;;;14.10;;
25349;SDS011;13302;48.796;11.978;2022-12-18T10:00:34;19.03;;;14.60;;
25349;SDS011;13302;48.796;11.978;2022-12-18T10:03:21;18.63;;;14.03;;
25349;SDS011;13302;48.796;11.978;2022-12-18T10:06:13;17.77;;;13.57;;
25349;SDS011;13302;48.796;11.978;2022-12-18T10:09:28;17.83;;;12.93;;
25349;SDS011;13302;48.796;11.978;2022-12-18T10:12:42;16.70;;;11.70;;
25349;SDS011;13302;48.796;11.978;2022-12-18T10:18:29;17.00;;;13.07;;
25349;SDS011;13302;48.796;11.978;2022-12-18T10:24:29;16.53;;;12.60;;
25349;SDS011;13302;48.796;11.978;2022-12-18T10:27:39;15.40;;;13.40;;
25349;SDS011;13302;48.796;11.978;2022-12-18T10:30:27;14.80;;;12.23;;
25349;SDS011;13302;48.796;11.978;2022-12-18T10:33:15;16.07;;;12.07;;
25349;SDS011;13302;48.796;11.978;2022-12-18T10:36:05;13.97;;;11.57;;
25349;SDS011;13302;48.796;11.978;2022-12-18T10:38:52;16.03;;;12.17;;
25349;SDS011;13302;48.796;11.978;2022-12-18T10:41:39;15.70;;;11.70;;
25349;SDS011;13302;48.796;11.978;2022-12-18T10:44:26;15.73;;;12.60;;
25349;SDS011;13302;48.796;11.978;2022-12-18T10:47:14;13.40;;;11.53;;
25349;SDS011;13302;48.796;11.978;2022-12-18T10:50:04;15.10;;;12.00;;
25349;SDS011;13302;48.796;11.978;2022-12-18T10:53:03;15.57;;;11.93;;
25349;SDS011;13302;48.796;11.978;2022-12-18T10:55:53;15.83;;;12.57;;
25349;SDS011;13302;48.796;11.978;2022-12-18T10:58:41;14.87;;;12.27;;
25349;SDS011;13302;48.796;11.978;2022-12-18T11:04:37;14.13;;;12.03;;
25349;SDS011;13302;48.796;11.978;2022-12-18T11:07:47;14.40;;;11.50;;
25349;SDS011;13302;48.796;11.978;2022-12-18T11:10:36;16.40;;;12.17;;
25349;SDS011;13302;48.796;11.978;2022-12-18T11:13:26;17.67;;;12.03;;
25349;SDS011;13302;48.796;11.978;2022-12-18T11:16:19;16.90;;;12.57;;
25349;SDS011;13302;48.796;11.978;2022-12-18T11:19:09;17.63;;;13.97;;
25349;SDS011;13302;48.796;11.978;2022-12-18T11:22:19;21.60;;;14.40;;
25349;SDS011;13302;48.796;11.978;2022-12-18T11:28:33;16.87;;;13.17;;
25349;SDS011;13302;48.796;11.978;2022-12-18T11:31:25;18.30;;;13.50;;
25349;SDS011;13302;48.796;11.978;2022-12-18T11:34:22;15.67;;;12.40;;
25349;SDS011;13302;48.796;11.978;2022-12-18T11:37:16;16.97;;;12.63;;
25349;SDS011;13302;48.796;11.978;2022-12-18T11:40:27;15.50;;;12.40;;
25349;SDS011;13302;48.796;11.978;2022-12-18T11:46:32;16.87;;;12.80;;
25349;SDS011;13302;48.796;11.978;2022-12-18T11:49:25;13.90;;;11.93;;
25349;SDS011;13302;48.796;11.978;2022-12-18T11:52:23;18.60;;;12.57;;
25349;SDS011;13302;48.796;11.978;2022-12-18T11:55:27;12.77;;;11.13;;
25349;SDS011;13302;48.796;11.978;2022-12-18T12:07:34;15.03;;;11.93;;
25349;SDS011;13302;48.796;11.978;2022-12-18T12:16:44;14.70;;;12.37;;
25349;SDS011;13302;48.796;11.978;2022-12-18T12:33:09;15.57;;;12.10;;
25349;SDS011;13302;48.796;11.978;2022-12-18T12:36:20;17.50;;;12.97;;
25349;SDS011;13302;48.796;11.978;2022-12-18T12:39:31;14.77;;;12.50;;
25349;SDS011;13302;48.796;11.978;2022-12-18T12:45:38;17.23;;;13.10;;
25349;SDS011;13302;48.796;11.978;2022-12-18T12:48:31;18.10;;;13.30;;
25349;SDS011;13302;48.796;11.978;2022-12-18T12:54:19;17.87;;;13.80;;
25349;SDS011;13302;48.796;11.978;2022-12-18T12:57:19;16.63;;;13.57;;
25349;SDS011;13302;48.796;11.978;2022-12-18T13:00:11;17.50;;;13.33;;
25349;SDS011;13302;48.796;11.978;2022-12-18T13:03:08;19.67;;;14.03;;
25349;SDS011;13302;48.796;11.978;2022-12-18T13:06:08;17.63;;;14.20;;
25349;SDS011;13302;48.796;11.978;2022-12-18T13:09:05;18.07;;;13.57;;
25349;SDS011;13302;48.796;11.978;2022-12-18T13:11:52;19.50;;;14.10;;
25349;SDS011;13302;48.796;11.978;2022-12-18T13:15:20;18.93;;;13.73;;
25349;SDS011;13302;48.796;11.978;2022-12-18T13:23:49;18.10;;;14.57;;
25349;SDS011;13302;48.796;11.978;2022-12-18T13:26:37;18.80;;;14.53;;
25349;SDS011;13302;48.796;11.978;2022-12-18T13:29:41;18.80;;;13.70;;
25349;SDS011;13302;48.796;11.978;2022-12-18T13:32:31;18.27;;;14.13;;
25349;SDS011;13302;48.796;11.978;2022-12-18T13:47:24;17.80;;;12.77;;
25349;SDS011;13302;48.796;11.978;2022-12-18T13:50:20;17.30;;;13.13;;
25349;SDS011;13302;48.796;11.978;2022-12-18T13:53:19;18.87;;;13.40;;
25349;SDS011;13302;48.796;11.978;2022-12-18T13:56:17;17.00;;;13.33;;
25349;SDS011;13302;48.796;11.978;2022-12-18T13:59:33;19.03;;;14.23;;
25349;SDS011;13302;48.796;11.978;2022-12-18T14:02:23;18.40;;;14.40;;
25349;SDS011;13302;48.796;11.978;2022-12-18T14:05:25;18.90;;;14.50;;
25349;SDS011;13302;48.796;11.978;2022-12-18T14:08:16;18.23;;;13.13;;
25349;SDS011;13302;48.796;11.978;2022-12-18T14:11:05;20.40;;;14.43;;
25349;SDS011;13302;48.796;11.978;2022-12-18T14:13:54;17.23;;;13.53;;
25349;SDS011;13302;48.796;11.978;2022-12-18T14:16:41;16.83;;;13.47;;
25349;SDS011;13302;48.796;11.978;2022-12-18T14:19:28;18.23;;;13.60;;
25349;SDS011;13302;48.796;11.978;2022-12-18T14:22:17;18.10;;;13.77;;
25349;SDS011;13302;48.796;11.978;2022-12-18T14:30:53;18.43;;;14.23;;
25349;SDS011;13302;48.796;11.978;2022-12-18T14:33:41;18.90;;;14.33;;
25349;SDS011;13302;48.796;11.978;2022-12-18T14:36:28;18.57;;;13.30;;
25349;SDS011;13302;48.796;11.978;2022-12-18T14:39:16;18.23;;;14.00;;
25349;SDS011;13302;48.796;11.978;2022-12-18T14:42:04;17.37;;;14.03;;
25349;SDS011;13302;48.796;11.978;2022-12-18T14:44:51;18.20;;;14.10;;
25349;SDS011;13302;48.796;11.978;2022-12-18T14:47:59;17.70;;;14.17;;
25349;SDS011;13302;48.796;11.978;2022-12-18T14:50:54;18.17;;;14.13;;
25349;SDS011;13302;48.796;11.978;2022-12-18T14:53:46;18.60;;;14.93;;
25349;SDS011;13302;48.796;11.978;2022-12-18T14:56:47;17.37;;;14.10;;
25349;SDS011;13302;48.796;11.978;2022-12-18T14:59:40;19.30;;;15.00;;
25349;SDS011;13302;48.796;11.978;2022-12-18T15:02:27;21.17;;;15.73;;
25349;SDS011;13302;48.796;11.978;2022-12-18T15:05:16;19.67;;;16.03;;
25349;SDS011;13302;48.796;11.978;2022-12-18T15:08:27;19.17;;;15.10;;
25349;SDS011;13302;48.796;11.978;2022-12-18T15:11:26;19.70;;;14.67;;
25349;SDS011;13302;48.796;11.978;2022-12-18T15:14:41;20.27;;;15.03;;
25349;SDS011;13302;48.796;11.978;2022-12-18T15:17:28;18.97;;;14.73;;
25349;SDS011;13302;48.796;11.978;2022-12-18T15:20:15;20.57;;;15.30;;
25349;SDS011;13302;48.796;11.978;2022-12-18T15:23:02;20.93;;;15.17;;
25349;SDS011;13302;48.796;11.978;2022-12-18T15:25:59;18.07;;;14.27;;
25349;SDS011;13302;48.796;11.978;2022-12-18T15:28:58;21.43;;;15.63;;
25349;SDS011;13302;48.796;11.978;2022-12-18T15:31:57;20.00;;;14.80;;
25349;SDS011;13302;48.796;11.978;2022-12-18T15:34:45;20.27;;;15.03;;
25349;SDS011;13302;48.796;11.978;2022-12-18T15:37:32;21.27;;;15.30;;
25349;SDS011;13302;48.796;11.978;2022-12-18T15:40:21;18.83;;;14.60;;
25349;SDS011;13302;48.796;11.978;2022-12-18T15:43:09;19.60;;;14.50;;
25349;SDS011;13302;48.796;11.978;2022-12-18T15:49:09;18.53;;;13.93;;
25349;SDS011;13302;48.796;11.978;2022-12-18T15:51:58;17.87;;;14.07;;
25349;SDS011;13302;48.796;11.978;2022-12-18T15:54:46;17.40;;;13.10;;
25349;SDS011;13302;48.796;11.978;2022-12-18T15:57:51;16.37;;;13.37;;
25349;SDS011;13302;48.796;11.978;2022-12-18T16:00:38;17.03;;;13.50;;
25349;SDS011;13302;48.796;11.978;2022-12-18T16:03:26;17.57;;;13.30;;
25349;SDS011;13302;48.796;11.978;2022-12-18T16:06:14;17.30;;;14.17;;
25349;SDS011;13302;48.796;11.978;2022-12-18T16:09:01;18.73;;;13.60;;
25349;SDS011;13302;48.796;11.978;2022-12-18T16:11:48;18.80;;;13.93;;
25349;SDS011;13302;48.796;11.978;2022-12-18T16:14:35;18.87;;;14.17;;
25349;SDS011;13302;48.796;11.978;2022-12-18T16:17:22;17.53;;;14.00;;
25349;SDS011;13302;48.796;11.978;2022-12-18T16:20:16;19.47;;;13.80;;
25349;SDS011;13302;48.796;11.978;2022-12-18T16:23:04;21.50;;;14.77;;
25349;SDS011;13302;48.796;11.978;2022-12-18T16:25:51;21.27;;;14.77;;
25349;SDS011;13302;48.796;11.978;2022-12-18T16:28:38;20.97;;;14.40;;
25349;SDS011;13302;48.796;11.978;2022-12-18T16:31:33;22.07;;;15.03;;
25349;SDS011;13302;48.796;11.978;2022-12-18T16:37:14;20.00;;;14.53;;
25349;SDS011;13302;48.796;11.978;2022-12-18T16:40:02;19.60;;;14.63;;
25349;SDS011;13302;48.796;11.978;2022-12-18T16:42:49;19.57;;;14.80;;
25349;SDS011;13302;48.796;11.978;2022-12-18T16:45:36;23.67;;;15.47;;
25349;SDS011;13302;48.796;11.978;2022-12-18T16:48:23;21.83;;;15.90;;
25349;SDS011;13302;48.796;11.978;2022-12-18T16:51:10;20.67;;;15.97;;
25349;SDS011;13302;48.796;11.978;2022-12-18T16:53:57;20.57;;;15.97;;
25349;SDS011;13302;48.796;11.978;2022-12-18T16:56:45;23.63;;;17.03;;
25349;SDS011;13302;48.796;11.978;2022-12-18T16:59:35;22.50;;;17.07;;
25349;SDS011;13302;48.796;11.978;2022-12-18T17:02:23;19.43;;;15.50;;
25349;SDS011;13302;48.796;11.978;2022-12-18T17:05:13;24.60;;;15.93;;
25349;SDS011;13302;48.796;11.978;2022-12-18T17:08:00;22.23;;;16.37;;
25349;SDS011;13302;48.796;11.978;2022-12-18T17:10:47;24.90;;;17.83;;
25349;SDS011;13302;48.796;11.978;2022-12-18T17:13:34;21.60;;;16.07;;
25349;SDS011;13302;48.796;11.978;2022-12-18T17:16:22;22.20;;;16.90;;
25349;SDS011;13302;48.796;11.978;2022-12-18T17:19:10;24.93;;;18.27;;
25349;SDS011;13302;48.796;11.978;2022-12-18T17:22:03;24.13;;;16.47;;
25349;SDS011;13302;48.796;11.978;2022-12-18T17:24:50;25.53;;;17.67;;
25349;SDS011;13302;48.796;11.978;2022-12-18T17:27:37;25.90;;;19.00;;
25349;SDS011;13302;48.796;11.978;2022-12-18T17:30:24;28.43;;;20.67;;
25349;SDS011;13302;48.796;11.978;2022-12-18T17:33:11;21.77;;;16.20;;
25349;SDS011;13302;48.796;11.978;2022-12-18T17:35:59;22.23;;;16.40;;
25349;SDS011;13302;48.796;11.978;2022-12-18T17:38:50;26.13;;;18.73;;
25349;SDS011;13302;48.796;11.978;2022-12-18T17:41:38;27.03;;;17.87;;
25349;SDS011;13302;48.796;11.978;2022-12-18T17:44:25;29.17;;;19.37;;
25349;SDS011;13302;48.796;11.978;2022-12-18T17:47:12;28.17;;;19.23;;
25349;SDS011;13302;48.796;11.978;2022-12-18T17:49:59;25.57;;;19.03;;
25349;SDS011;13302;48.796;11.978;2022-12-18T17:52:46;27.00;;;18.80;;
25349;SDS011;13302;48.796;11.978;2022-12-18T17:55:33;31.50;;;20.93;;
25349;SDS011;13302;48.796;11.978;2022-12-18T17:58:21;26.37;;;19.40;;
25349;SDS011;13302;48.796;11.978;2022-12-18T18:01:08;25.57;;;18.17;;
25349;SDS011;13302;48.796;11.978;2022-12-18T18:04:02;22.50;;;16.27;;